This is the latest recevied weather packets stored in our database for station/object K1BES. If no packets are shown the sender has not sent any weather packets the latest 10 day(s).
| Time | Temp. | Humidity | Pressure | Rain* | Wind** | Luminosity | Snow |
|---|---|---|---|---|---|---|---|
| 1787940650 | 34.44° C | 62% | 1019.6 hPa | 0 mm | - | 991 W/m² | - |
| 1787940349 | 34.44° C | 60% | 1019.6 hPa | 0 mm | - | 997 W/m² | - |
| 1787940049 | 34.44° C | 60% | 1019.5 hPa | 0 mm | - | 999 W/m² | - |
| 1787939748 | 34.44° C | 61% | 1019.8 hPa | 0 mm | - | 1004 W/m² | - |
| 1787939443 | 34.44° C | 60% | 1020 hPa | 0 mm | - | 1005 W/m² | - |
| 1787939138 | 34.44° C | 62% | 1020 hPa | 0 mm | - | 1008 W/m² | - |
| 1787938838 | 34.44° C | 59% | 1020 hPa | 0 mm | - | 1008 W/m² | - |
| 1787938532 | 35° C | 56% | 1019.9 hPa | 0 mm | - | 1010 W/m² | - |
| 1787938228 | 35° C | 59% | 1020 hPa | 0 mm | - | 1009 W/m² | - |
| 1787937923 | 34.44° C | 58% | 1020.2 hPa | 0 mm | - | 1008 W/m² | - |
| 1787937619 | 34.44° C | 59% | 1020.3 hPa | 0 mm | - | 1007 W/m² | - |
| 1787937315 | 35° C | 59% | 1020.2 hPa | 0 mm | - | 1005 W/m² | - |
| 1787937010 | 35° C | 57% | 1020.1 hPa | 0 mm | - | 1002 W/m² | - |
| 1787936709 | 34.44° C | 59% | 1020.4 hPa | 0 mm | - | 998 W/m² | - |
| 1787936409 | 33.89° C | 58% | 1020.6 hPa | 0 mm | - | 997 W/m² | - |
| 1787936104 | 33.89° C | 60% | 1020.6 hPa | 0 mm | - | 991 W/m² | - |
| 1787935799 | 34.44° C | 56% | 1020.4 hPa | 0 mm | - | 987 W/m² | - |
| 1787935495 | 33.89° C | 59% | 1020.6 hPa | 0 mm | - | 981 W/m² | - |
| 1787935191 | 34.44° C | 58% | 1020.8 hPa | 0 mm | - | 975 W/m² | - |
| 1787934886 | 34.44° C | 56% | 1020.5 hPa | 0 mm | - | 966 W/m² | - |
| 1787934585 | 34.44° C | 58% | 1020.7 hPa | 0 mm | - | 957 W/m² | - |
| 1787934286 | 34.44° C | 57% | 1020.8 hPa | 0 mm | - | 950 W/m² | - |
| 1787933985 | 34.44° C | 59% | 1020.9 hPa | 0 mm | - | 938 W/m² | - |
| 1787933684 | 34.44° C | 58% | 1021 hPa | 0 mm | - | 930 W/m² | - |
| 1787933379 | 34.44° C | 58% | 1021 hPa | 0 mm | - | 918 W/m² | - |
* Rain latest hour (hover to see other rain measurements)
** Current wind speed in m/s (hover to see current wind gust speed)